createdAt,value
2018-09-26T00:01:30.592Z,7.45
2018-09-26T00:04:30.597Z,7.32
2018-09-26T00:07:30.498Z,7.17
2018-09-26T00:10:30.516Z,6.99
2018-09-26T00:13:30.445Z,6.81
2018-09-26T00:16:30.440Z,6.58
2018-09-26T00:19:30.365Z,6.28
2018-09-26T00:22:30.344Z,6.28
2018-09-26T00:25:30.320Z,6.48
2018-09-26T00:28:30.282Z,6.83
2018-09-26T00:31:30.232Z,6.68
2018-09-26T00:34:30.206Z,6.40
2018-09-26T00:37:30.181Z,6.16
2018-09-26T00:40:30.169Z,5.81
2018-09-26T00:43:30.099Z,5.57
2018-09-26T00:46:30.083Z,5.38
2018-09-26T00:49:30.054Z,5.04
2018-09-26T00:52:30.005Z,4.98
2018-09-26T00:55:30.301Z,4.84
2018-09-26T00:58:29.969Z,4.99
2018-09-26T01:01:29.932Z,4.89
2018-09-26T01:04:30.903Z,4.84
2018-09-26T01:07:29.846Z,4.94
2018-09-26T01:10:29.826Z,5.02
2018-09-26T01:13:29.763Z,5.04
2018-09-26T01:16:31.103Z,4.80
2018-09-26T01:19:29.693Z,4.79
2018-09-26T01:22:29.708Z,4.91
2018-09-26T01:25:29.632Z,4.88
2018-09-26T01:28:29.638Z,5.13
2018-09-26T01:31:29.561Z,5.25
2018-09-26T01:34:29.519Z,5.31
2018-09-26T01:37:29.523Z,5.30
2018-09-26T01:40:29.480Z,5.48
2018-09-26T01:43:29.444Z,5.46
2018-09-26T01:46:31.173Z,5.53
2018-09-26T01:49:29.352Z,5.41
2018-09-26T01:52:29.353Z,5.09
2018-09-26T01:55:29.283Z,5.12
2018-09-26T01:58:29.248Z,5.25
2018-09-26T02:01:29.236Z,5.04
2018-09-26T02:04:29.211Z,4.79
2018-09-26T02:07:29.160Z,4.79
2018-09-26T02:10:30.105Z,4.61
2018-09-26T02:13:29.110Z,4.44
2018-09-26T02:16:29.069Z,4.22
2018-09-26T02:19:29.027Z,4.04
2018-09-26T02:22:28.990Z,4.26
2018-09-26T02:25:28.956Z,4.28
2018-09-26T02:28:28.940Z,4.47
2018-09-26T02:31:28.900Z,4.54
2018-09-26T02:34:28.868Z,4.51
2018-09-26T02:37:28.820Z,4.52
2018-09-26T02:40:28.787Z,4.75
2018-09-26T02:43:28.727Z,4.94
2018-09-26T02:46:28.744Z,5.14
2018-09-26T02:49:28.663Z,5.32
2018-09-26T02:52:28.674Z,5.32
2018-09-26T02:55:28.600Z,5.27
2018-09-26T02:58:28.584Z,5.37
2018-09-26T03:01:28.521Z,5.37
2018-09-26T03:04:28.504Z,5.53
2018-09-26T03:07:28.472Z,5.46
2018-09-26T03:10:28.538Z,5.48
2018-09-26T03:13:28.410Z,5.55
2018-09-26T03:16:28.367Z,5.43
2018-09-26T03:19:28.332Z,5.30
2018-09-26T03:22:28.311Z,5.23
2018-09-26T03:25:28.267Z,5.01
2018-09-26T03:28:28.258Z,4.79
2018-09-26T03:31:28.214Z,4.79
2018-09-26T03:34:28.173Z,5.04
2018-09-26T03:37:28.109Z,5.25
2018-09-26T03:40:28.114Z,5.49
2018-09-26T03:43:28.098Z,5.49
2018-09-26T03:46:28.034Z,5.34
2018-09-26T03:49:27.978Z,5.17
2018-09-26T03:52:28.013Z,5.16
2018-09-26T03:55:27.995Z,4.75
2018-09-26T03:58:27.901Z,4.72
2018-09-26T04:01:27.862Z,4.70
2018-09-26T04:04:27.857Z,4.62
2018-09-26T04:07:27.783Z,4.40
2018-09-26T04:10:27.768Z,4.10
2018-09-26T04:13:28.616Z,3.72
2018-09-26T04:16:27.724Z,3.80
2018-09-26T04:19:27.653Z,3.40
2018-09-26T04:22:27.648Z,3.42
2018-09-26T04:25:27.571Z,3.80
2018-09-26T04:28:27.567Z,3.97
2018-09-26T04:31:27.506Z,4.19
2018-09-26T04:34:27.505Z,4.32
2018-09-26T04:37:27.481Z,4.26
2018-09-26T04:40:27.450Z,4.10
2018-09-26T04:43:27.429Z,4.00
2018-09-26T04:46:27.353Z,3.96
2018-09-26T04:49:27.298Z,3.94
2018-09-26T04:52:27.288Z,3.94
2018-09-26T04:55:27.246Z,3.94
2018-09-26T04:58:27.228Z,4.10
2018-09-26T05:01:27.174Z,4.10
2018-09-26T05:04:27.145Z,3.97
2018-09-26T05:07:27.101Z,4.19
2018-09-26T05:10:27.097Z,4.29
2018-09-26T05:13:27.040Z,4.40
2018-09-26T05:16:27.036Z,4.34
2018-09-26T05:19:26.976Z,4.28
2018-09-26T05:22:26.969Z,4.29
2018-09-26T05:25:26.889Z,4.26
2018-09-26T05:28:26.911Z,4.16
2018-09-26T05:31:26.822Z,3.92
2018-09-26T05:34:26.824Z,4.10
2018-09-26T05:37:26.775Z,4.12
2018-09-26T05:40:26.756Z,4.25
2018-09-26T05:43:26.688Z,4.26
2018-09-26T05:46:26.661Z,4.37
2018-09-26T05:49:26.637Z,4.42
2018-09-26T05:52:26.597Z,4.37
2018-09-26T05:55:26.553Z,4.32
2018-09-26T05:58:26.572Z,4.47
2018-09-26T06:01:27.142Z,4.57
2018-09-26T06:04:26.465Z,4.72
2018-09-26T06:07:26.424Z,4.77
2018-09-26T06:10:26.401Z,4.83
2018-09-26T06:13:26.356Z,4.84
2018-09-26T06:16:26.327Z,5.02
2018-09-26T06:19:26.306Z,5.25
2018-09-26T06:22:26.277Z,5.57
2018-09-26T06:25:26.217Z,5.75
2018-09-26T06:28:26.222Z,6.09
2018-09-26T06:31:26.189Z,6.14
2018-09-26T06:34:26.116Z,6.54
2018-09-26T06:37:26.101Z,6.90
2018-09-26T06:40:26.056Z,7.22
2018-09-26T06:43:26.011Z,7.34
2018-09-26T06:46:27.010Z,7.59
2018-09-26T06:49:25.957Z,7.90
2018-09-26T06:52:25.928Z,8.14
2018-09-26T06:55:25.863Z,8.40
2018-09-26T06:58:25.855Z,8.54
2018-09-26T07:01:25.806Z,8.75
2018-09-26T07:04:25.815Z,8.84
2018-09-26T07:07:25.786Z,9.32
2018-09-26T07:10:25.730Z,9.53
2018-09-26T07:13:25.661Z,9.85
2018-09-26T07:16:25.645Z,10.18
2018-09-26T07:19:25.608Z,10.37
2018-09-26T07:22:25.591Z,10.63
2018-09-26T07:25:25.581Z,10.96
2018-09-26T07:28:25.551Z,11.09
2018-09-26T07:31:25.487Z,11.44
2018-09-26T07:34:25.490Z,11.89
2018-09-26T07:37:25.388Z,12.92
2018-09-26T07:40:25.381Z,13.58
2018-09-26T07:43:25.325Z,14.29
2018-09-26T07:46:25.320Z,14.64
2018-09-26T07:49:25.248Z,15.17
2018-09-26T07:52:25.233Z,15.08
2018-09-26T07:55:25.177Z,15.30
2018-09-26T07:58:25.165Z,14.86
2018-09-26T08:01:25.112Z,14.49
2018-09-26T08:04:25.127Z,14.61
2018-09-26T08:07:25.052Z,14.71
2018-09-26T08:10:25.119Z,15.05
2018-09-26T08:13:24.977Z,15.46
2018-09-26T08:16:24.981Z,16.06
2018-09-26T08:19:24.917Z,16.49
2018-09-26T08:22:24.903Z,16.44
2018-09-26T08:25:25.135Z,16.50
2018-09-26T08:28:24.856Z,16.26
2018-09-26T08:31:24.773Z,16.01
2018-09-26T08:34:24.757Z,15.89
2018-09-26T08:37:24.716Z,15.78
2018-09-26T08:40:24.706Z,16.18
2018-09-26T08:43:24.662Z,16.31
2018-09-26T08:46:24.991Z,17.23
2018-09-26T08:49:24.580Z,17.63
2018-09-26T08:52:24.562Z,18.86
2018-09-26T08:55:24.509Z,20.15
2018-09-26T08:58:24.494Z,20.69
2018-09-26T09:01:24.450Z,20.83
2018-09-26T09:04:24.418Z,21.36
2018-09-26T09:07:24.370Z,20.81
2018-09-26T09:10:24.374Z,21.81
2018-09-26T09:13:24.325Z,22.07
2018-09-26T09:16:24.309Z,21.97
2018-09-26T09:19:24.239Z,22.47
2018-09-26T09:22:24.272Z,22.49
2018-09-26T09:25:24.187Z,23.94
2018-09-26T09:28:24.192Z,24.26
2018-09-26T09:31:24.157Z,23.40
2018-09-26T09:34:24.113Z,23.29
2018-09-26T09:37:24.053Z,23.53
2018-09-26T09:40:24.106Z,24.37
2018-09-26T09:43:24.209Z,24.31
2018-09-26T09:46:24.563Z,24.63
2018-09-26T09:49:23.994Z,24.24
2018-09-26T09:52:24.566Z,24.04
2018-09-26T09:55:23.863Z,25.12
2018-09-26T09:58:23.840Z,24.42
2018-09-26T10:01:23.792Z,24.57
2018-09-26T10:04:23.901Z,24.34
2018-09-26T10:07:23.865Z,25.43
2018-09-26T10:10:23.891Z,24.52
2018-09-26T10:13:23.777Z,25.69
2018-09-26T10:16:25.795Z,25.35
2018-09-26T10:19:38.585Z,25.09
2018-09-26T10:22:24.544Z,24.35
2018-09-26T10:25:24.064Z,24.29
2018-09-26T10:28:23.554Z,23.57
2018-09-26T10:31:23.464Z,24.34
2018-09-26T10:34:23.446Z,23.26
2018-09-26T10:37:23.428Z,22.89
2018-09-26T10:40:23.394Z,22.72
2018-09-26T10:43:23.348Z,23.45
2018-09-26T10:46:23.359Z,23.08
2018-09-26T10:49:23.266Z,24.01
2018-09-26T10:52:23.300Z,23.95
2018-09-26T10:55:23.218Z,25.09
2018-09-26T10:58:23.186Z,25.57
2018-09-26T11:01:23.181Z,23.60
2018-09-26T11:04:23.235Z,24.34
2018-09-26T11:07:23.104Z,24.53
2018-09-26T11:10:23.190Z,24.50
2018-09-26T11:13:23.025Z,24.34
2018-09-26T11:16:23.052Z,23.27
2018-09-26T11:19:22.967Z,24.08
2018-09-26T11:22:23.015Z,25.07
2018-09-26T11:25:22.904Z,25.39
2018-09-26T11:28:23.024Z,25.57
2018-09-26T11:31:22.851Z,24.95
2018-09-26T11:34:22.879Z,24.54
2018-09-26T11:37:22.897Z,25.39
2018-09-26T11:40:22.827Z,25.47
2018-09-26T11:43:22.733Z,25.46
2018-09-26T11:46:22.760Z,25.93
2018-09-26T11:49:22.633Z,25.00
2018-09-26T11:52:22.702Z,24.32
2018-09-26T11:55:22.585Z,24.39
2018-09-26T11:58:22.679Z,24.12
2018-09-26T12:01:22.514Z,24.77
2018-09-26T12:04:22.577Z,25.65
2018-09-26T12:07:22.502Z,25.46
2018-09-26T12:10:22.484Z,25.37
2018-09-26T12:13:22.415Z,24.82
2018-09-26T12:16:22.565Z,24.35
2018-09-26T12:19:22.331Z,24.26
2018-09-26T12:22:22.468Z,24.29
2018-09-26T12:25:22.259Z,23.08
2018-09-26T12:28:22.314Z,23.75
2018-09-26T12:31:22.220Z,23.95
2018-09-26T12:34:24.180Z,23.72
2018-09-26T12:37:22.139Z,24.01
2018-09-26T12:40:22.157Z,24.02
2018-09-26T12:43:22.044Z,23.75
2018-09-26T12:46:22.126Z,23.95
2018-09-26T12:49:21.983Z,24.13
2018-09-26T12:52:22.025Z,24.00
2018-09-26T12:55:21.914Z,24.44
2018-09-26T12:58:21.971Z,24.26
2018-09-26T13:01:21.841Z,23.76
2018-09-26T13:04:21.961Z,23.14
2018-09-26T13:07:21.791Z,23.32
2018-09-26T13:10:23.668Z,23.17
2018-09-26T13:13:21.718Z,23.76
2018-09-26T13:16:21.806Z,24.17
2018-09-26T13:19:22.625Z,24.29
2018-09-26T13:22:22.721Z,24.94
2018-09-26T13:25:21.648Z,23.87
2018-09-26T13:28:21.590Z,23.76
2018-09-26T13:31:21.525Z,22.96
2018-09-26T13:34:21.592Z,22.39
2018-09-26T13:37:21.470Z,23.11
2018-09-26T13:40:21.481Z,23.02
2018-09-26T13:43:21.410Z,23.58
2018-09-26T13:46:21.559Z,23.94
2018-09-26T13:49:21.368Z,24.10
2018-09-26T13:52:21.399Z,24.13
2018-09-26T13:55:21.610Z,23.40
2018-09-26T13:58:21.346Z,23.86
2018-09-26T14:01:21.222Z,23.58
2018-09-26T14:04:21.265Z,24.14
2018-09-26T14:07:21.126Z,23.71
2018-09-26T14:10:21.115Z,23.53
2018-09-26T14:13:21.053Z,23.72
2018-09-26T14:16:21.041Z,23.61
2018-09-26T14:19:21.036Z,23.42
2018-09-26T14:22:21.003Z,23.68
2018-09-26T14:25:20.935Z,23.65
2018-09-26T14:28:20.925Z,24.01
2018-09-26T14:31:20.850Z,23.05
2018-09-26T14:34:20.856Z,23.20
2018-09-26T14:37:20.812Z,23.47
2018-09-26T14:40:20.783Z,23.65
2018-09-26T14:43:20.733Z,23.52
2018-09-26T14:46:20.691Z,23.58
2018-09-26T14:49:20.676Z,23.04
2018-09-26T14:52:20.653Z,22.84
2018-09-26T14:55:20.647Z,22.86
2018-09-26T14:58:20.658Z,23.01
2018-09-26T15:01:20.533Z,22.97
2018-09-26T15:04:20.592Z,22.80
2018-09-26T15:07:20.457Z,22.89
2018-09-26T15:10:20.540Z,22.49
2018-09-26T15:13:20.404Z,22.71
2018-09-26T15:16:20.389Z,22.89
2018-09-26T15:19:20.320Z,23.40
2018-09-26T15:22:20.392Z,23.42
2018-09-26T15:25:20.295Z,23.07
2018-09-26T15:28:21.216Z,23.09
2018-09-26T15:31:20.212Z,22.84
2018-09-26T15:34:20.209Z,22.99
2018-09-26T15:37:20.097Z,23.12
2018-09-26T15:40:20.225Z,22.99
2018-09-26T15:43:20.038Z,22.90
2018-09-26T15:46:20.046Z,22.44
2018-09-26T15:49:19.969Z,22.74
2018-09-26T15:52:19.969Z,22.62
2018-09-26T15:55:19.958Z,22.47
2018-09-26T15:58:19.950Z,22.28
2018-09-26T16:01:19.853Z,22.59
2018-09-26T16:04:19.833Z,22.57
2018-09-26T16:07:19.769Z,22.57
2018-09-26T16:10:19.779Z,22.72
2018-09-26T16:13:19.703Z,22.89
2018-09-26T16:16:19.749Z,22.43
2018-09-26T16:19:19.711Z,22.07
2018-09-26T16:22:19.637Z,21.95
2018-09-26T16:25:19.917Z,21.97
2018-09-26T16:28:19.626Z,21.94
2018-09-26T16:31:19.483Z,21.44
2018-09-26T16:34:19.530Z,21.27
2018-09-26T16:37:19.447Z,21.29
2018-09-26T16:40:19.455Z,20.59
2018-09-26T16:43:19.347Z,19.33
2018-09-26T16:46:19.409Z,18.67
2018-09-26T16:49:19.283Z,18.33
2018-09-26T16:52:19.270Z,18.09
2018-09-26T16:55:19.226Z,17.95
2018-09-26T16:58:19.229Z,17.51
2018-09-26T17:01:19.137Z,17.47
2018-09-26T17:04:19.228Z,17.13
2018-09-26T17:07:19.104Z,16.90
2018-09-26T17:10:19.145Z,16.71
2018-09-26T17:13:19.007Z,16.52
2018-09-26T17:16:19.697Z,16.34
2018-09-26T17:19:19.014Z,16.06
2018-09-26T17:22:18.951Z,15.85
2018-09-26T17:25:19.676Z,15.86
2018-09-26T17:28:18.933Z,15.81
2018-09-26T17:31:18.841Z,15.45
2018-09-26T17:34:18.862Z,14.84
2018-09-26T17:37:18.779Z,14.31
2018-09-26T17:40:19.174Z,13.91
2018-09-26T17:43:19.729Z,13.74
2018-09-26T17:46:18.644Z,13.91
2018-09-26T17:49:18.650Z,13.55
2018-09-26T17:52:18.626Z,13.29
2018-09-26T17:55:18.537Z,13.07
2018-09-26T17:58:18.593Z,12.82
2018-09-26T18:01:18.501Z,12.54
2018-09-26T18:04:18.476Z,12.67
2018-09-26T18:07:18.393Z,12.56
2018-09-26T18:10:18.372Z,12.52
2018-09-26T18:13:18.318Z,12.21
2018-09-26T18:16:20.099Z,12.19
2018-09-26T18:19:18.250Z,12.13
2018-09-26T18:22:18.225Z,12.09
2018-09-26T18:25:18.177Z,12.02
2018-09-26T18:28:18.172Z,12.34
2018-09-26T18:31:18.189Z,12.44
2018-09-26T18:34:18.112Z,12.64
2018-09-26T18:37:18.036Z,12.67
2018-09-26T18:40:18.035Z,12.59
2018-09-26T18:43:17.976Z,12.30
2018-09-26T18:46:17.944Z,12.12
2018-09-26T18:49:17.910Z,11.96
2018-09-26T18:52:17.938Z,12.29
2018-09-26T18:55:17.840Z,12.31
2018-09-26T18:58:17.826Z,12.26
2018-09-26T19:01:17.812Z,12.33
2018-09-26T19:04:17.769Z,12.31
2018-09-26T19:07:17.721Z,12.21
2018-09-26T19:10:19.591Z,11.94
2018-09-26T19:13:19.613Z,11.46
2018-09-26T19:16:17.636Z,11.56
2018-09-26T19:19:17.556Z,11.78
2018-09-26T19:22:17.601Z,11.83
2018-09-26T19:25:17.497Z,11.75
2018-09-26T19:28:17.471Z,11.77
2018-09-26T19:31:17.517Z,11.70
2018-09-26T19:34:17.405Z,11.34
2018-09-26T19:37:17.361Z,10.89
2018-09-26T19:40:17.338Z,10.71
2018-09-26T19:43:17.293Z,10.53
2018-09-26T19:46:17.294Z,10.55
2018-09-26T19:49:17.250Z,10.39
2018-09-26T19:52:17.392Z,10.39
2018-09-26T19:55:17.170Z,10.62
2018-09-26T19:58:17.175Z,10.83
2018-09-26T20:01:17.078Z,10.99
2018-09-26T20:04:17.081Z,11.03
2018-09-26T20:07:17.019Z,11.25
2018-09-26T20:10:17.098Z,11.20
2018-09-26T20:13:16.974Z,11.13
2018-09-26T20:16:16.924Z,11.17
2018-09-26T20:19:16.883Z,11.21
2018-09-26T20:22:16.853Z,11.17
2018-09-26T20:25:16.810Z,11.24
2018-09-26T20:28:16.795Z,11.28
2018-09-26T20:31:16.755Z,11.16
2018-09-26T20:34:16.729Z,11.25
2018-09-26T20:37:16.689Z,11.20
2018-09-26T20:40:16.662Z,10.89
2018-09-26T20:43:16.624Z,10.56
2018-09-26T20:46:16.820Z,10.22
2018-09-26T20:49:16.547Z,9.94
2018-09-26T20:52:16.544Z,9.64
2018-09-26T20:55:16.501Z,9.43
2018-09-26T20:58:16.533Z,9.60
2018-09-26T21:01:16.429Z,9.75
2018-09-26T21:04:16.631Z,9.58
2018-09-26T21:07:16.352Z,9.56
2018-09-26T21:10:16.321Z,9.48
2018-09-26T21:13:16.262Z,9.38
2018-09-26T21:16:16.378Z,9.38
2018-09-26T21:19:16.188Z,9.05
2018-09-26T21:22:16.170Z,9.20
2018-09-26T21:25:16.142Z,9.49
2018-09-26T21:28:16.111Z,9.53
2018-09-26T21:31:16.119Z,9.40
2018-09-26T21:34:16.041Z,9.42
2018-09-26T21:37:15.994Z,9.46
2018-09-26T21:40:15.969Z,9.24
2018-09-26T21:43:15.936Z,9.13
2018-09-26T21:46:15.922Z,8.93
2018-09-26T21:49:15.865Z,8.83
2018-09-26T21:52:15.833Z,8.76
2018-09-26T21:55:15.804Z,8.88
2018-09-26T21:58:15.767Z,9.24
2018-09-26T22:01:15.712Z,9.24
2018-09-26T22:04:15.711Z,9.18
2018-09-26T22:07:15.641Z,9.23
2018-09-26T22:10:15.652Z,9.01
2018-09-26T22:13:15.575Z,8.83
2018-09-26T22:16:15.594Z,8.62
2018-09-26T22:19:15.514Z,8.37
2018-09-26T22:22:15.508Z,8.30
2018-09-26T22:25:15.450Z,8.32
2018-09-26T22:28:15.441Z,8.42
2018-09-26T22:31:15.431Z,8.21
2018-09-26T22:34:15.353Z,8.00
2018-09-26T22:37:15.319Z,8.17
2018-09-26T22:40:15.306Z,8.25
2018-09-26T22:43:15.231Z,8.48
2018-09-26T22:46:15.233Z,8.86
2018-09-26T22:49:15.160Z,9.05
2018-09-26T22:52:15.193Z,9.01
2018-09-26T22:55:15.120Z,9.02
2018-09-26T22:58:15.194Z,9.13
2018-09-26T23:01:15.029Z,9.15
2018-09-26T23:04:15.025Z,9.20
2018-09-26T23:07:14.966Z,9.31
2018-09-26T23:10:14.935Z,9.35
2018-09-26T23:13:14.913Z,9.43
2018-09-26T23:16:14.872Z,9.42
2018-09-26T23:19:14.834Z,9.20
2018-09-26T23:22:14.804Z,8.86
2018-09-26T23:25:14.759Z,8.79
2018-09-26T23:28:14.729Z,9.01
2018-09-26T23:31:14.680Z,9.04
2018-09-26T23:34:14.711Z,9.02
2018-09-26T23:37:14.622Z,9.06
2018-09-26T23:40:14.614Z,9.23
2018-09-26T23:43:16.552Z,9.31
2018-09-26T23:46:14.528Z,9.24
2018-09-26T23:49:14.491Z,9.15
2018-09-26T23:52:14.518Z,9.30
2018-09-26T23:55:14.415Z,9.34
2018-09-26T23:58:14.403Z,9.27
